Alkin Kalkavan — TCOL6 — position and weather

sailwx.info

Track history (hours):
 
Tides and Currents Weather Stations Pressure Air Temp Water Temp Dewpoint Dewpoint Depression Visibility Wind Speed Wind Dir Waves Ship Positions

Alkin Kalkavan

Last reported at 2015-Jan-27 05:27 UTC. Time now 2015-Jan-28 16:21 UTC.
Position N 33°06' E 034°29'.

Length 150 m; draft 6.4 m.

Type: Cargo ship. MMSI: 271000905.

Date/timePositionNaut miles runAvg speedWind from/ knotsBaromVisibWave heightAir tempDewpointWater temp
2015-Jan-27 05:27N 33°06' E 034°29'1814.3
2015-Jan-27 04:12N 32°59' E 034°49'8 0.8
2015-Jan-26 17:33N 32°50' E 034°51'1414.4
2015-Jan-26 16:33N 32°37' E 034°45'1414.5
2015-Jan-26 15:33N 32°23' E 034°41'31 1.5
2015-Jan-25 18:19N 31°56' E 034°21'1415.7
2015-Jan-25 17:28N 32°08' E 034°13'1917.0
2015-Jan-25 16:21N 32°26' E 034°15'1616.7
2015-Jan-25 15:22N 32°43' E 034°17'1416.8
2015-Jan-25 14:33N 32°56' E 034°20'1716.8
2015-Jan-25 13:34N 33°13' E 034°22'2017.2
2015-Jan-25 12:22N 33°33' E 034°24'1416.9
2015-Jan-25 11:33N 33°47' E 034°26'  
2015-Jan-18 18:18N 39°52' E 025°51'3114.7
2015-Jan-18 16:13N 40°09' E 026°23'2614.1
2015-Jan-18 14:22N 40°27' E 026°48'  
Track history (hours):
 
Tides and Currents Weather Stations Pressure Air Temp Water Temp Dewpoint Dewpoint Depression Visibility Wind Speed Wind Dir Waves Ship Positions

Alkin Kalkavan

Last reported at 2015-Jan-27 05:27 UTC. Time now 2015-Jan-28 16:21 UTC.
Position N 33°06' E 034°29'.

Length 150 m; draft 6.4 m.

Type: Cargo ship. MMSI: 271000905.

Date/timePositionNaut miles runAvg speedWind from/ knotsBaromVisibWave heightAir tempDewpointWater temp
2015-Jan-27 05:27N 33°06' E 034°29'1814.3
2015-Jan-27 04:12N 32°59' E 034°49'8 0.8
2015-Jan-26 17:33N 32°50' E 034°51'1414.4
2015-Jan-26 16:33N 32°37' E 034°45'1414.5
2015-Jan-26 15:33N 32°23' E 034°41'31 1.5
2015-Jan-25 18:19N 31°56' E 034°21'1415.7
2015-Jan-25 17:28N 32°08' E 034°13'1917.0
2015-Jan-25 16:21N 32°26' E 034°15'1616.7
2015-Jan-25 15:22N 32°43' E 034°17'1416.8
2015-Jan-25 14:33N 32°56' E 034°20'1716.8
2015-Jan-25 13:34N 33°13' E 034°22'2017.2
2015-Jan-25 12:22N 33°33' E 034°24'1416.9
2015-Jan-25 11:33N 33°47' E 034°26'  
2015-Jan-18 18:18N 39°52' E 025°51'3114.7
2015-Jan-18 16:13N 40°09' E 026°23'2614.1
2015-Jan-18 14:22N 40°27' E 026°48'  

Dump ship's entire track history